Time;durP1;ratioP1;P1;durP2;ratioP2;P2;SDS_P1;SDS_P2;PMS_P1;PMS_P2;Temp;Humidity;BMP_temperature;BMP_pressure;BME280_temperature;BME280_humidity;BME280_pressure;Samples;Min_cycle;Max_cycle;Signal;HPM_P1;HPM_P2
2020/12/05 00:00:15;;;;;;;16.13;7.75;;;;;;;7.61;72.42;98583.78;5053370;28;20052;-66
2020/12/05 00:02:44;;;;;;;16.33;8.10;;;;;;;7.61;71.69;98588.84;5053477;28;20088;-66
2020/12/05 00:05:12;;;;;;;14.35;7.32;;;;;;;7.61;71.99;98593.94;5053054;28;20049;-66
2020/12/05 00:07:39;;;;;;;17.23;7.95;;;;;;;7.67;72.82;98615.91;5053037;28;20037;-66
2020/12/05 00:10:07;;;;;;;14.65;7.60;;;;;;;7.73;71.94;98604.00;5053254;28;20065;-65
2020/12/05 00:12:36;;;;;;;14.45;7.45;;;;;;;7.77;71.88;98599.78;5053020;28;20045;-66
2020/12/05 00:15:03;;;;;;;17.52;8.10;;;;;;;7.73;72.66;98586.25;5052985;28;20438;-67
2020/12/05 00:17:32;;;;;;;16.15;8.10;;;;;;;7.68;72.13;98585.44;5052996;28;20033;-66
2020/12/05 00:20:01;;;;;;;17.92;8.23;;;;;;;7.70;72.88;98591.34;5052910;28;20051;-66
2020/12/05 00:22:28;;;;;;;15.90;7.82;;;;;;;7.71;72.82;98582.03;5052916;28;20041;-67
2020/12/05 00:24:57;;;;;;;16.20;8.00;;;;;;;7.73;72.11;98590.47;5052655;28;20061;-65
2020/12/05 00:27:24;;;;;;;13.38;6.85;;;;;;;7.77;72.78;98585.38;5053852;28;20041;-66
2020/12/05 00:29:52;;;;;;;16.98;7.85;;;;;;;7.82;72.28;98583.63;5056517;28;20086;-65
2020/12/05 00:32:21;;;;;;;15.18;8.13;;;;;;;7.83;72.48;98598.03;5056620;28;20041;-67
2020/12/05 00:34:52;;;;;;;15.35;7.35;;;;;;;7.82;72.31;98603.94;5056545;28;20099;-65
2020/12/05 00:37:20;;;;;;;17.00;7.68;;;;;;;7.78;72.43;98602.28;5056390;28;20403;-66
2020/12/05 00:39:48;;;;;;;16.77;7.50;;;;;;;7.82;72.09;98614.09;5056465;28;20098;-65
2020/12/05 00:42:15;;;;;;;15.73;7.47;;;;;;;7.74;72.44;98605.72;5056234;28;20443;-66
2020/12/05 00:44:43;;;;;;;15.23;7.32;;;;;;;7.75;72.65;98599.75;5055196;28;20495;-67
2020/12/05 00:47:11;;;;;;;15.30;7.45;;;;;;;7.84;72.28;98620.03;5056235;28;20084;-66
2020/12/05 00:49:38;;;;;;;17.77;8.48;;;;;;;7.83;72.85;98620.03;5054985;28;20041;-68
2020/12/05 00:52:06;;;;;;;15.68;8.32;;;;;;;7.81;72.58;98620.06;5056189;28;20103;-66
2020/12/05 00:54:35;;;;;;;17.35;8.52;;;;;;;7.80;72.33;98600.56;5054961;28;20503;-65
2020/12/05 00:57:02;;;;;;;17.42;8.10;;;;;;;7.88;72.78;98608.13;5054949;28;20041;-66
2020/12/05 00:59:30;;;;;;;16.17;8.20;;;;;;;7.87;72.71;98611.56;5056039;28;20498;-66
2020/12/05 01:01:58;;;;;;;13.82;6.55;;;;;;;7.85;73.11;98619.16;5056024;28;20045;-67
2020/12/05 01:04:29;;;;;;;19.45;8.18;;;;;;;7.84;72.69;98606.50;5055945;28;20053;-67
2020/12/05 01:06:57;;;;;;;16.17;8.55;;;;;;;7.75;72.98;98606.56;5055931;28;20053;-67
2020/12/05 01:09:25;;;;;;;16.92;8.20;;;;;;;7.84;73.12;98627.66;5056009;28;20037;-66
2020/12/05 01:11:53;;;;;;;17.38;7.75;;;;;;;7.80;72.98;98620.91;5055943;28;20060;-66
2020/12/05 01:14:21;;;;;;;18.17;8.45;;;;;;;7.66;72.82;98601.53;5056019;28;20053;-66
2020/12/05 01:16:48;;;;;;;14.50;7.18;;;;;;;7.85;72.81;98629.31;5055793;28;20041;-66
2020/12/05 01:19:16;;;;;;;17.50;9.10;;;;;;;7.86;72.51;98631.03;5055646;28;20179;-66
2020/12/05 01:21:45;;;;;;;17.65;8.75;;;;;;;7.75;72.83;98616.72;5055685;28;20052;-67
2020/12/05 01:24:12;;;;;;;16.35;6.63;;;;;;;7.70;73.42;98613.38;5055374;28;20102;-67
2020/12/05 01:26:40;;;;;;;16.88;7.82;;;;;;;7.73;73.82;98624.31;5055582;28;20048;-66
2020/12/05 01:29:09;;;;;;;18.23;8.90;;;;;;;7.69;73.16;98607.44;5055405;28;20052;-66
2020/12/05 01:31:37;;;;;;;17.45;8.40;;;;;;;7.76;73.67;98626.84;5055426;28;20053;-67
2020/12/05 01:34:05;;;;;;;17.27;8.60;;;;;;;7.78;73.55;98632.75;5055746;28;20041;-65
2020/12/05 01:36:34;;;;;;;19.08;9.70;;;;;;;7.79;73.47;98623.44;5055600;28;20044;-65
2020/12/05 01:39:01;;;;;;;16.15;8.63;;;;;;;7.79;73.74;98624.31;5055413;28;20495;-68
2020/12/05 01:41:29;;;;;;;16.35;8.50;;;;;;;7.78;73.44;98625.16;5055246;28;20045;-66
2020/12/05 01:43:56;;;;;;;18.70;8.95;;;;;;;7.72;73.11;98622.66;5055234;28;20495;-67
2020/12/05 01:46:33;;;;;;;18.80;8.70;;;;;;;7.69;74.23;98647.22;5055075;28;20068;-66
2020/12/05 01:49:01;;;;;;;20.10;10.00;;;;;;;7.70;74.11;98644.66;5054319;28;20068;-68
2020/12/05 01:51:29;;;;;;;16.63;9.52;;;;;;;7.63;73.88;98648.09;5055303;28;20037;-67
2020/12/05 01:53:57;;;;;;;18.55;8.60;;;;;;;7.72;73.94;98663.28;5055627;28;20152;-66
2020/12/05 01:56:25;;;;;;;17.33;8.18;;;;;;;7.68;73.97;98661.59;5054885;28;20047;-67
2020/12/05 01:58:53;;;;;;;21.33;10.10;;;;;;;7.57;73.99;98648.13;5053797;28;20044;-67
2020/12/05 02:01:22;;;;;;;17.50;9.10;;;;;;;7.61;74.11;98637.09;5054965;28;20044;-66
2020/12/05 02:03:52;;;;;;;20.58;9.23;;;;;;;7.67;73.97;98659.06;5054908;28;20049;-65
2020/12/05 02:06:27;;;;;;;19.42;9.23;;;;;;;7.67;74.06;98648.94;5055069;28;20037;-66
2020/12/05 02:08:56;;;;;;;18.08;9.27;;;;;;;7.56;73.90;98636.28;5054669;28;20090;-68
2020/12/05 02:11:25;;;;;;;18.27;8.75;;;;;;;7.58;74.07;98657.44;5054755;28;20049;-66
2020/12/05 02:13:52;;;;;;;18.65;8.73;;;;;;;7.53;74.53;98641.41;5054591;28;20041;-67
2020/12/05 02:16:22;;;;;;;;;;;;;;;7.59;74.24;98648.97;5055316;28;20578;-68
2020/12/05 02:19:15;;;;;;;18.83;8.75;;;;;;;7.61;74.18;98648.94;5072651;28;19944;-67
2020/12/05 02:21:43;;;;;;;19.30;8.90;;;;;;;7.59;74.50;98653.19;5072595;28;20048;-67
2020/12/05 02:24:11;;;;;;;18.25;8.82;;;;;;;7.62;74.36;98651.50;5072135;28;20056;-68
2020/12/05 02:26:39;;;;;;;16.10;8.82;;;;;;;7.63;74.66;98653.16;5072315;28;20119;-67
2020/12/05 02:29:07;;;;;;;22.13;9.25;;;;;;;7.25;74.94;98599.22;5072059;28;20045;-67
2020/12/05 02:31:35;;;;;;;19.33;9.50;;;;;;;7.65;74.67;98648.09;5072516;28;20041;-65
2020/12/05 02:34:03;;;;;;;17.67;8.85;;;;;;;7.61;74.53;98644.72;5072030;28;20491;-67
2020/12/05 02:36:30;;;;;;;19.42;9.10;;;;;;;7.62;74.76;98641.34;5072208;28;20079;-65
2020/12/05 02:39:01;;;;;;;17.40;8.90;;;;;;;7.62;75.19;98646.41;5071920;28;20103;-67
2020/12/05 02:41:29;;;;;;;18.15;9.40;;;;;;;7.67;74.52;98634.53;5072145;28;20044;-65
2020/12/05 02:43:57;;;;;;;19.42;8.73;;;;;;;7.66;74.75;98635.38;5071943;28;20048;-67
2020/12/05 02:46:24;;;;;;;17.70;8.73;;;;;;;7.63;74.62;98637.94;5071967;28;20498;-66
2020/12/05 02:48:52;;;;;;;17.63;8.55;;;;;;;7.68;74.78;98636.22;5071664;28;20045;-66
2020/12/05 02:51:20;;;;;;;17.98;9.68;;;;;;;7.68;74.87;98615.91;5071371;28;20040;-67
2020/12/05 02:53:47;;;;;;;19.92;9.35;;;;;;;7.64;75.37;98616.78;5071846;28;20066;-65
2020/12/05 02:56:16;;;;;;;19.02;9.43;;;;;;;7.56;75.07;98610.88;5063341;28;20099;-67
2020/12/05 02:58:45;;;;;;;13.40;6.70;;;;;;;7.62;75.15;98621.03;5053952;28;20513;-67
2020/12/05 03:01:13;;;;;;;16.60;8.38;;;;;;;7.65;75.47;98605.78;5053760;28;20534;-66
2020/12/05 03:03:40;;;;;;;15.48;8.38;;;;;;;7.67;74.79;98619.31;5053799;28;20045;-66
2020/12/05 03:06:08;;;;;;;17.90;8.35;;;;;;;7.65;75.31;98600.69;5052519;28;20495;-66
2020/12/05 03:08:36;;;;;;;18.00;9.38;;;;;;;7.70;74.52;98614.19;5053655;28;20487;-67
2020/12/05 03:11:06;;;;;;;17.77;8.90;;;;;;;7.65;75.08;98594.78;5053618;28;20067;-67
2020/12/05 03:13:37;;;;;;;17.77;7.97;;;;;;;7.59;75.29;98579.56;5053773;28;20110;-66
2020/12/05 03:16:07;;;;;;;16.23;8.35;;;;;;;7.67;75.30;98599.00;5053917;28;20045;-68
2020/12/05 03:18:35;;;;;;;22.25;10.30;;;;;;;7.78;74.99;98616.69;5053682;28;20491;-65
2020/12/05 03:21:02;;;;;;;18.98;9.10;;;;;;;7.67;75.11;98603.22;5052128;28;20091;-65
2020/12/05 03:23:31;;;;;;;19.25;10.00;;;;;;;7.70;75.57;98619.25;5053330;28;20045;-67
2020/12/05 03:25:58;;;;;;;17.95;8.50;;;;;;;7.76;74.87;98628.53;5053791;28;20406;-66
2020/12/05 03:28:26;;;;;;;16.23;9.15;;;;;;;7.78;75.32;98617.53;5053439;28;20052;-65
2020/12/05 03:30:53;;;;;;;16.40;8.65;;;;;;;7.77;75.46;98620.09;5053654;28;20045;-66
2020/12/05 03:33:23;;;;;;;18.50;8.30;;;;;;;7.67;75.36;98614.22;5053317;28;20043;-67
2020/12/05 03:35:51;;;;;;;14.57;6.88;;;;;;;7.34;74.82;98558.59;5053372;28;20421;-65
2020/12/05 03:38:18;;;;;;;17.33;8.90;;;;;;;7.74;75.40;98627.72;5053247;28;20495;-65
2020/12/05 03:40:46;;;;;;;20.15;8.90;;;;;;;7.66;75.01;98650.63;5053348;28;20048;-65
2020/12/05 03:43:14;;;;;;;15.80;7.85;;;;;;;7.69;75.51;98655.69;5053207;28;20049;-68
2020/12/05 03:45:41;;;;;;;18.55;9.20;;;;;;;7.69;75.57;98658.22;5053295;28;20399;-65
2020/12/05 03:48:12;;;;;;;16.40;8.80;;;;;;;7.70;75.52;98667.50;5053121;28;20403;-66
2020/12/05 03:50:41;;;;;;;18.48;8.57;;;;;;;7.69;75.93;98678.53;5053267;28;20045;-65
2020/12/05 03:53:08;;;;;;;15.90;8.50;;;;;;;7.75;75.39;98665.78;5053171;28;20049;-66
2020/12/05 03:55:36;;;;;;;15.50;8.30;;;;;;;7.68;75.54;98676.84;5053215;28;20491;-68
2020/12/05 03:58:03;;;;;;;17.13;8.15;;;;;;;7.67;76.04;98659.94;5053174;28;20049;-66
2020/12/05 04:00:31;;;;;;;17.80;8.63;;;;;;;7.70;75.58;98674.31;5053468;28;20041;-66
2020/12/05 04:02:58;;;;;;;16.67;8.45;;;;;;;7.76;75.05;98664.94;5056677;28;20047;-66
2020/12/05 04:05:27;;;;;;;18.33;8.90;;;;;;;7.75;76.00;98682.75;5057315;28;20041;-65
2020/12/05 04:07:55;;;;;;;18.48;9.23;;;;;;;7.68;75.33;98676.00;5057039;28;20052;-66
2020/12/05 04:10:24;;;;;;;16.17;8.45;;;;;;;7.67;76.12;98690.41;5055840;28;20106;-67
2020/12/05 04:12:51;;;;;;;17.75;8.75;;;;;;;7.76;75.09;98704.72;5056965;28;20052;-65
2020/12/05 04:15:19;;;;;;;16.85;8.90;;;;;;;7.78;75.53;98710.66;5056933;28;20124;-66
2020/12/05 04:17:46;;;;;;;18.25;9.02;;;;;;;7.72;75.75;98719.16;5056898;28;20124;-65
2020/12/05 04:20:14;;;;;;;14.98;7.60;;;;;;;7.70;75.34;98738.59;5056657;28;20052;-68
2020/12/05 04:22:41;;;;;;;16.80;8.93;;;;;;;7.66;75.86;98739.47;5056798;28;20060;-65
2020/12/05 04:25:10;;;;;;;15.63;8.35;;;;;;;7.69;76.16;98739.47;5056382;28;20049;-65
2020/12/05 04:27:37;;;;;;;16.40;8.52;;;;;;;7.68;76.07;98740.31;5056972;28;20056;-65
2020/12/05 04:30:06;;;;;;;15.25;7.95;;;;;;;7.72;76.11;98748.78;5056551;28;20510;-67
2020/12/05 04:32:33;;;;;;;17.15;8.13;;;;;;;7.80;76.34;98742.81;5056654;28;20091;-65
2020/12/05 04:35:01;;;;;;;16.70;8.13;;;;;;;7.82;75.64;98751.25;5056456;28;20111;-65
2020/12/05 04:37:28;;;;;;;15.55;8.40;;;;;;;7.82;76.01;98766.50;5056587;28;20045;-67
2020/12/05 04:39:56;;;;;;;19.23;9.13;;;;;;;7.74;76.03;98736.91;5056746;28;20045;-66
2020/12/05 04:42:25;;;;;;;15.80;8.30;;;;;;;7.81;75.82;98772.44;5056352;28;20041;-65
2020/12/05 04:44:53;;;;;;;19.33;8.80;;;;;;;7.67;75.52;98751.34;5056719;28;20534;-67
2020/12/05 04:47:21;;;;;;;15.57;8.77;;;;;;;7.81;75.97;98771.59;5056316;28;20045;-67
2020/12/05 04:49:48;;;;;;;18.58;8.60;;;;;;;7.78;75.39;98749.59;5056335;28;20143;-66
2020/12/05 04:52:24;;;;;;;15.48;8.23;;;;;;;7.89;74.68;98775.78;5056132;28;20041;-65
2020/12/05 04:54:53;;;;;;;15.98;8.55;;;;;;;7.88;74.92;98771.56;5056225;28;20135;-65
2020/12/05 04:57:21;;;;;;;15.55;8.27;;;;;;;7.85;75.35;98761.41;5056042;28;20037;-65
2020/12/05 04:59:51;;;;;;;16.23;7.72;;;;;;;7.81;75.36;98749.59;5056163;28;20617;-65
2020/12/05 05:02:20;;;;;;;17.17;8.30;;;;;;;8.01;74.84;98780.78;5055947;28;20576;-65
2020/12/05 05:04:48;;;;;;;13.77;6.00;;;;;;;7.95;75.49;98777.44;5056083;28;20037;-65
2020/12/05 05:07:17;;;;;;;14.88;7.95;;;;;;;7.90;74.97;98774.94;5055881;28;20518;-65
2020/12/05 05:09:46;;;;;;;17.42;8.38;;;;;;;7.86;75.66;98763.09;5055886;28;20520;-65
2020/12/05 05:12:25;;;;;;;16.83;8.10;;;;;;;7.85;75.55;98766.50;5055863;28;20049;-66
2020/12/05 05:14:54;;;;;;;15.65;8.18;;;;;;;7.81;75.32;98764.81;5054241;28;20090;-67
2020/12/05 05:17:22;;;;;;;18.63;7.95;;;;;;;7.78;75.54;98764.81;5055725;28;20110;-66
2020/12/05 05:19:49;;;;;;;15.57;8.18;;;;;;;7.83;76.05;98783.44;5055677;28;20052;-66
2020/12/05 05:22:20;;;;;;;15.60;8.45;;;;;;;7.78;75.84;98779.22;5055625;28;20044;-66
2020/12/05 05:24:53;;;;;;;18.50;8.85;;;;;;;7.80;76.17;98787.66;5054361;28;20049;-67
2020/12/05 05:27:22;;;;;;;16.08;8.20;;;;;;;7.73;76.17;98781.78;5055681;28;20045;-65
2020/12/05 05:29:49;;;;;;;17.83;7.97;;;;;;;7.79;76.04;98801.22;5055746;28;20041;-66
2020/12/05 05:32:25;;;;;;;15.48;8.57;;;;;;;7.83;75.64;98792.75;5055490;28;20048;-67
2020/12/05 05:35:10;;;;;;;15.30;8.73;;;;;;;7.83;75.86;98797.81;5055519;28;20473;-67
2020/12/05 05:37:37;;;;;;;17.17;8.52;;;;;;;7.83;75.54;98787.66;5055473;28;20053;-66
2020/12/05 05:40:06;;;;;;;16.20;7.88;;;;;;;7.76;75.63;98786.84;5055364;28;20049;-67
2020/12/05 05:42:34;;;;;;;15.98;8.07;;;;;;;7.71;76.06;98780.09;5055329;28;20033;-65
2020/12/05 05:45:10;;;;;;;14.05;8.15;;;;;;;7.82;76.14;98791.88;5055297;28;20487;-67
2020/12/05 05:47:39;;;;;;;13.43;7.30;;;;;;;7.84;75.75;98785.13;5055208;28;20098;-67
2020/12/05 05:50:19;;;;;;;16.25;8.60;;;;;;;7.85;75.66;98791.03;5055102;28;20075;-66
2020/12/05 05:52:53;;;;;;;19.73;8.98;;;;;;;7.88;75.92;98788.50;5055036;28;20124;-67
2020/12/05 05:55:21;;;;;;;16.38;8.43;;;;;;;7.84;75.93;98799.53;5055134;28;20102;-67
2020/12/05 05:57:48;;;;;;;15.10;7.35;;;;;;;7.78;76.39;98805.47;5054903;28;20403;-67
2020/12/05 06:00:16;;;;;;;14.88;8.30;;;;;;;7.66;76.50;98789.41;5055258;28;20392;-67
2020/12/05 06:02:45;;;;;;;17.48;8.75;;;;;;;7.57;76.00;98786.91;5054911;28;20052;-67
2020/12/05 06:05:14;;;;;;;16.23;8.52;;;;;;;7.51;76.04;98792.84;5054935;28;20050;-65
2020/12/05 06:07:41;;;;;;;15.13;7.25;;;;;;;7.56;76.69;98803.03;5055112;28;20063;-65
2020/12/05 06:10:09;;;;;;;14.80;7.80;;;;;;;7.63;76.89;98790.28;5054707;28;20037;-67
2020/12/05 06:12:37;;;;;;;15.20;8.20;;;;;;;7.76;76.91;98791.94;5054751;28;20061;-66
2020/12/05 06:15:05;;;;;;;16.20;7.85;;;;;;;7.85;76.11;98796.97;5054602;28;20526;-67
2020/12/05 06:17:32;;;;;;;16.90;8.10;;;;;;;7.92;76.44;98793.53;5054558;28;20384;-67
2020/12/05 06:20:01;;;;;;;15.98;7.68;;;;;;;7.87;76.44;98797.81;5054758;28;20076;-65
2020/12/05 06:22:44;;;;;;;15.52;7.82;;;;;;;7.88;76.56;98802.03;5054478;28;20037;-66
2020/12/05 06:25:13;;;;;;;15.30;7.97;;;;;;;7.89;76.05;98808.78;5053481;28;20053;-67
2020/12/05 06:27:41;;;;;;;15.43;8.20;;;;;;;7.82;76.32;98807.13;5054428;28;20037;-66
2020/12/05 06:30:09;;;;;;;15.20;7.35;;;;;;;7.85;76.82;98811.34;5054217;28;20498;-65
2020/12/05 06:32:38;;;;;;;16.17;8.32;;;;;;;7.75;76.42;98818.16;5054715;28;20041;-67
2020/12/05 06:35:22;;;;;;;17.17;8.10;;;;;;;7.83;76.44;98824.06;5054306;28;20063;-66
2020/12/05 06:37:49;;;;;;;17.05;8.27;;;;;;;7.70;76.39;98803.81;5054060;28;20144;-67
2020/12/05 06:40:17;;;;;;;18.25;8.18;;;;;;;7.88;76.38;98822.38;5054113;28;20052;-66
2020/12/05 06:42:46;;;;;;;13.98;7.65;;;;;;;7.90;76.22;98825.75;5054123;28;20037;-67
2020/12/05 06:45:37;;;;;;;16.10;8.35;;;;;;;7.88;75.87;98814.75;5054077;28;20041;-67
2020/12/05 06:48:10;;;;;;;14.20;7.60;;;;;;;7.92;75.95;98830.78;5054093;28;20055;-66
2020/12/05 06:50:44;;;;;;;14.75;7.32;;;;;;;7.86;76.50;98819.00;5053991;28;20052;-65
2020/12/05 06:53:28;;;;;;;15.38;8.00;;;;;;;8.00;76.07;98822.31;5054009;28;20046;-65
2020/12/05 06:55:56;;;;;;;14.85;8.85;;;;;;;7.94;76.45;98817.25;5054263;28;20072;-66
2020/12/05 06:58:24;;;;;;;23.40;10.20;;;;;;;7.72;76.00;98800.41;5053906;28;20491;-67
2020/12/05 07:00:52;;;;;;;14.55;7.53;;;;;;;7.94;76.79;98837.56;5053864;28;20092;-67
2020/12/05 07:03:24;;;;;;;17.40;7.82;;;;;;;8.06;76.15;98826.53;5053810;28;20063;-67
2020/12/05 07:05:53;;;;;;;14.40;7.60;;;;;;;8.08;75.98;98830.75;5053749;28;20060;-65
2020/12/05 07:08:26;;;;;;;13.55;7.07;;;;;;;8.26;76.05;98828.94;5053636;28;20124;-65
2020/12/05 07:10:57;;;;;;;13.75;7.45;;;;;;;8.43;75.18;98833.13;5053491;28;20045;-66
2020/12/05 07:13:26;;;;;;;14.27;7.22;;;;;;;8.57;74.70;98820.31;5052522;28;20099;-66
2020/12/05 07:16:08;;;;;;;18.02;7.88;;;;;;;8.74;74.34;98833.78;5052318;28;20075;-66
2020/12/05 07:18:38;;;;;;;14.20;7.25;;;;;;;8.83;73.19;98815.88;5053597;28;20049;-65
2020/12/05 07:21:06;;;;;;;15.30;7.18;;;;;;;8.85;73.27;98810.81;5053556;28;20077;-66
2020/12/05 07:23:35;;;;;;;18.08;7.88;;;;;;;8.96;72.54;98835.31;5053272;28;20128;-67
2020/12/05 07:26:02;;;;;;;14.55;7.40;;;;;;;8.85;72.74;98814.19;5053563;28;20123;-66
2020/12/05 07:28:30;;;;;;;16.55;7.35;;;;;;;9.06;72.06;98836.91;5053410;28;20063;-65
2020/12/05 07:30:58;;;;;;;12.90;7.10;;;;;;;9.10;72.42;98837.72;5053305;28;20041;-66
2020/12/05 07:33:25;;;;;;;17.35;7.53;;;;;;;9.19;71.86;98841.03;5053372;28;20045;-66
2020/12/05 07:35:57;;;;;;;15.27;6.95;;;;;;;9.26;71.63;98845.22;5053130;28;20091;-67
2020/12/05 07:38:27;;;;;;;15.25;8.15;;;;;;;9.36;71.42;98851.91;5053713;28;20049;-65
2020/12/05 07:40:55;;;;;;;13.90;7.43;;;;;;;9.40;71.21;98848.50;5053284;28;20056;-65
2020/12/05 07:43:22;;;;;;;14.50;7.25;;;;;;;9.48;71.76;98856.03;5053624;28;20041;-67
2020/12/05 07:45:51;;;;;;;14.27;7.75;;;;;;;9.43;71.14;98837.41;5053179;28;20041;-65
2020/12/05 07:48:20;;;;;;;13.52;7.18;;;;;;;9.59;71.12;98849.16;5053330;28;20044;-65
2020/12/05 07:50:48;;;;;;;15.15;8.07;;;;;;;9.59;70.28;98838.97;5053115;28;20123;-67
2020/12/05 07:53:21;;;;;;;13.40;7.75;;;;;;;9.69;70.29;98842.25;5053113;28;20132;-65
2020/12/05 07:55:50;;;;;;;13.82;7.28;;;;;;;9.62;70.71;98838.09;5053415;28;20411;-66
2020/12/05 07:58:17;;;;;;;15.30;7.82;;;;;;;9.64;70.59;98832.13;5053115;28;20064;-65
2020/12/05 08:00:45;;;;;;;17.30;7.43;;;;;;;9.48;69.95;98810.19;5053051;28;20049;-65
2020/12/05 08:03:22;;;;;;;13.35;7.40;;;;;;;9.83;69.86;98848.03;5053165;28;20573;-67
2020/12/05 08:05:51;;;;;;;12.68;6.75;;;;;;;9.77;70.56;98843.84;5053250;28;20045;-67
2020/12/05 08:08:19;;;;;;;11.63;6.35;;;;;;;9.90;70.35;98862.41;5052969;28;20059;-67
2020/12/05 08:10:46;;;;;;;13.35;7.18;;;;;;;9.89;69.42;98858.16;5051892;28;20132;-67
2020/12/05 08:13:19;;;;;;;12.75;7.30;;;;;;;9.84;69.34;98859.91;5052976;28;20048;-67
2020/12/05 08:15:49;;;;;;;14.95;7.38;;;;;;;9.87;70.27;98862.44;5053177;28;20068;-66
2020/12/05 08:18:16;;;;;;;9.63;5.32;;;;;;;9.87;69.33;98864.97;5053358;28;20071;-67
2020/12/05 08:20:44;;;;;;;13.10;7.13;;;;;;;9.85;70.18;98864.16;5053043;28;20094;-67
2020/12/05 08:23:18;;;;;;;13.20;7.40;;;;;;;9.81;69.98;98854.88;5052857;28;20064;-65
2020/12/05 08:25:47;;;;;;;13.93;7.22;;;;;;;9.53;69.58;98793.16;5052819;28;20057;-68
2020/12/05 08:28:14;;;;;;;14.45;7.18;;;;;;;9.85;69.61;98852.25;5051721;28;20045;-65
2020/12/05 08:30:43;;;;;;;13.70;7.35;;;;;;;9.83;69.55;98854.00;5052767;28;20049;-68
2020/12/05 08:33:11;;;;;;;14.73;7.03;;;;;;;9.83;69.60;98842.94;5053164;28;20072;-67
2020/12/05 08:35:40;;;;;;;14.90;6.90;;;;;;;9.89;69.85;98863.25;5051659;28;20041;-66
2020/12/05 08:38:10;;;;;;;11.77;6.47;;;;;;;9.92;69.36;98868.31;5052813;28;20047;-67
2020/12/05 08:40:38;;;;;;;14.52;7.50;;;;;;;9.98;69.76;98868.28;5052854;28;20073;-68
2020/12/05 08:43:06;;;;;;;12.57;7.15;;;;;;;9.99;69.04;98864.84;5051610;28;20503;-66
2020/12/05 08:45:37;;;;;;;15.05;7.85;;;;;;;9.99;68.98;98859.75;5052709;28;20499;-65
2020/12/05 08:48:12;;;;;;;14.35;7.15;;;;;;;10.12;68.93;98866.44;5053325;28;20076;-68
2020/12/05 08:50:41;;;;;;;12.45;7.05;;;;;;;10.04;69.03;98863.94;5056340;28;20053;-65
2020/12/05 08:53:08;;;;;;;15.38;6.55;;;;;;;10.07;69.35;98883.44;5056274;28;20052;-65
2020/12/05 08:55:37;;;;;;;12.43;6.68;;;;;;;9.94;69.30;98871.69;5054980;28;20048;-66
2020/12/05 08:58:06;;;;;;;12.95;6.15;;;;;;;10.08;68.71;98880.03;5056198;28;20113;-67
2020/12/05 09:00:35;;;;;;;14.07;6.70;;;;;;;10.17;68.53;98879.97;5056128;28;20041;-66
2020/12/05 09:03:03;;;;;;;13.50;6.93;;;;;;;10.14;68.70;98890.19;5056165;28;20114;-67
2020/12/05 09:05:31;;;;;;;12.77;7.53;;;;;;;10.26;68.83;98890.06;5056340;28;20052;-67
2020/12/05 09:08:01;;;;;;;14.77;7.20;;;;;;;10.25;69.10;98888.34;5055886;28;20124;-68
2020/12/05 09:10:29;;;;;;;12.27;7.32;;;;;;;10.19;68.64;98890.13;5055876;28;20094;-67
2020/12/05 09:13:04;;;;;;;12.98;7.35;;;;;;;10.18;68.71;98873.13;5055893;28;20052;-66
2020/12/05 09:15:32;;;;;;;11.63;6.47;;;;;;;10.16;69.25;98873.16;5055903;28;20556;-67
2020/12/05 09:18:00;;;;;;;12.60;6.93;;;;;;;10.19;68.52;98867.19;5055730;28;20041;-67
2020/12/05 09:20:28;;;;;;;12.73;6.65;;;;;;;10.22;68.74;98869.72;5055673;28;20051;-67
2020/12/05 09:22:56;;;;;;;11.80;6.40;;;;;;;10.27;68.68;98856.03;5055653;28;20043;-66
2020/12/05 09:25:27;;;;;;;13.10;6.78;;;;;;;10.23;68.37;98848.44;5055436;28;20052;-67
2020/12/05 09:27:55;;;;;;;11.82;6.60;;;;;;;10.37;68.36;98861.84;5054448;28;20098;-66
2020/12/05 09:30:23;;;;;;;13.18;6.32;;;;;;;10.41;68.11;98858.41;5055732;28;20072;-67
2020/12/05 09:32:52;;;;;;;12.60;6.53;;;;;;;10.54;68.07;98837.81;5055484;28;20578;-67
2020/12/05 09:35:20;;;;;;;13.20;6.65;;;;;;;10.64;67.71;98852.13;5055460;28;20051;-67
2020/12/05 09:37:48;;;;;;;15.65;7.25;;;;;;;10.72;67.14;98842.63;5055356;28;20449;-66
2020/12/05 09:40:16;;;;;;;14.50;7.40;;;;;;;10.77;67.43;98834.94;5055413;28;20037;-67
2020/12/05 09:42:45;;;;;;;11.85;6.55;;;;;;;10.97;66.81;98845.66;5054168;28;20038;-65
2020/12/05 09:45:13;;;;;;;12.43;6.60;;;;;;;11.03;66.48;98837.06;5055346;28;20079;-68
2020/12/05 09:47:42;;;;;;;11.35;6.15;;;;;;;11.23;66.81;98837.56;5055406;28;20069;-67
2020/12/05 09:50:09;;;;;;;10.93;6.05;;;;;;;11.32;65.91;98804.22;5055133;28;20071;-67
2020/12/05 09:52:37;;;;;;;10.85;5.90;;;;;;;11.58;65.58;98817.34;5055106;28;20041;-66
2020/12/05 09:55:05;;;;;;;12.15;6.47;;;;;;;11.79;64.81;98816.97;5055028;28;20491;-67
2020/12/05 09:57:33;;;;;;;12.27;5.97;;;;;;;11.79;64.01;98793.97;5054974;28;20045;-66
2020/12/05 10:00:02;;;;;;;10.68;6.97;;;;;;;11.84;64.29;98796.44;5054781;28;20120;-66
2020/12/05 10:02:31;;;;;;;12.68;6.60;;;;;;;11.89;63.88;98810.81;5054941;28;20046;-66
2020/12/05 10:04:58;;;;;;;12.02;6.18;;;;;;;11.95;64.01;98805.56;5054880;28;20048;-66
2020/12/05 10:07:26;;;;;;;11.30;6.20;;;;;;;11.79;64.21;98819.53;5054905;28;20051;-65
2020/12/05 10:09:53;;;;;;;12.70;6.32;;;;;;;11.67;64.06;98822.28;5054814;28;20398;-67
2020/12/05 10:12:21;;;;;;;12.35;6.72;;;;;;;11.55;64.48;98821.66;5054677;28;20102;-68
2020/12/05 10:14:49;;;;;;;12.93;6.82;;;;;;;11.50;64.49;98844.75;5054580;28;20502;-65
2020/12/05 10:17:23;;;;;;;13.18;6.93;;;;;;;11.39;64.49;98808.34;5054748;28;20037;-65
2020/12/05 10:19:50;;;;;;;12.48;6.60;;;;;;;11.38;65.11;98809.19;5054580;28;20518;-66
2020/12/05 10:22:21;;;;;;;11.15;6.30;;;;;;;11.56;64.91;98831.88;5054590;28;20041;-66
2020/12/05 10:24:49;;;;;;;11.95;6.97;;;;;;;11.56;64.96;98837.00;5054168;28;20140;-66
2020/12/05 10:27:16;;;;;;;11.57;6.18;;;;;;;11.04;65.00;98751.91;5054504;28;20059;-67
2020/12/05 10:29:44;;;;;;;10.50;5.82;;;;;;;11.45;64.73;98828.66;5054456;28;20086;-66
2020/12/05 10:32:13;;;;;;;11.82;6.95;;;;;;;11.47;64.81;98837.13;5054312;28;20041;-66
2020/12/05 10:34:41;;;;;;;11.02;6.13;;;;;;;11.50;64.38;98826.88;5054255;28;20045;-66
2020/12/05 10:37:09;;;;;;;10.15;6.03;;;;;;;11.49;64.56;98830.31;5054268;28;20049;-67
2020/12/05 10:39:37;;;;;;;11.55;6.10;;;;;;;11.51;64.70;98838.78;5054196;28;20099;-66
2020/12/05 10:42:05;;;;;;;10.98;6.55;;;;;;;11.43;65.23;98825.28;5054172;28;20132;-66
2020/12/05 10:44:33;;;;;;;14.50;6.20;;;;;;;11.40;64.62;98830.44;5054451;28;20403;-66
2020/12/05 10:47:01;;;;;;;9.20;5.72;;;;;;;11.43;64.79;98840.63;5054299;28;20053;-66
2020/12/05 10:49:29;;;;;;;9.82;6.00;;;;;;;11.40;64.71;98848.34;5054067;28;20041;-66
2020/12/05 10:51:58;;;;;;;12.77;6.10;;;;;;;11.37;64.88;98835.63;5053896;28;20064;-67
2020/12/05 10:54:25;;;;;;;12.38;5.97;;;;;;;11.38;65.41;98844.97;5054057;28;20430;-68
2020/12/05 10:56:53;;;;;;;12.50;6.32;;;;;;;11.24;64.88;98834.16;5053743;28;20095;-67
2020/12/05 10:59:21;;;;;;;10.13;5.95;;;;;;;11.32;65.11;98842.53;5053853;28;20411;-67
2020/12/05 11:01:49;;;;;;;10.60;6.03;;;;;;;11.24;65.59;98844.38;5053733;28;20045;-67
2020/12/05 11:04:16;;;;;;;13.50;6.53;;;;;;;11.23;65.49;98842.66;5053805;28;20041;-67
2020/12/05 11:06:45;;;;;;;10.88;6.10;;;;;;;11.24;65.36;98849.47;5053778;28;20041;-67
2020/12/05 11:09:14;;;;;;;11.88;6.93;;;;;;;11.24;65.99;98839.25;5053742;28;20061;-67
2020/12/05 11:11:43;;;;;;;11.80;6.68;;;;;;;11.19;65.65;98825.72;5053129;28;20048;-66
2020/12/05 11:14:11;;;;;;;;;;;;;;;11.28;65.75;98851.09;5054353;28;20403;-66
2020/12/05 11:16:38;;;;;;;14.20;6.80;;;;;;;11.28;65.53;98840.88;5052504;28;19948;-66
2020/12/05 11:19:06;;;;;;;10.90;5.97;;;;;;;11.32;65.54;98842.53;5053567;28;20041;-67
2020/12/05 11:21:34;;;;;;;10.52;6.72;;;;;;;11.21;65.74;98826.53;5053565;28;20072;-66
2020/12/05 11:24:02;;;;;;;12.63;6.65;;;;;;;11.03;65.24;98788.56;5053271;28;20076;-66
2020/12/05 11:26:30;;;;;;;11.13;6.15;;;;;;;11.41;65.47;98842.38;5053817;28;20128;-66
2020/12/05 11:28:58;;;;;;;10.32;5.80;;;;;;;11.42;64.97;98831.28;5052331;28;20045;-66
2020/12/05 11:31:25;;;;;;;11.23;6.57;;;;;;;11.46;65.33;98845.69;5053293;28;20069;-66
2020/12/05 11:33:53;;;;;;;13.48;6.57;;;;;;;11.50;64.81;98841.34;5052961;28;20449;-68
2020/12/05 11:36:21;;;;;;;12.27;5.93;;;;;;;11.41;65.33;98819.38;5053367;28;20051;-66
2020/12/05 11:38:50;;;;;;;11.23;6.65;;;;;;;11.61;64.58;98850.53;5053646;28;20064;-65